createdAt,value
2022-12-22T00:00:11.870Z,10.53
2022-12-22T00:02:57.995Z,11.40
2022-12-22T00:05:43.861Z,13.30
2022-12-22T00:08:29.844Z,11.03
2022-12-22T00:11:16.222Z,11.47
2022-12-22T00:14:03.210Z,11.10
2022-12-22T00:16:51.053Z,10.40
2022-12-22T00:19:37.060Z,14.03
2022-12-22T00:22:29.600Z,11.77
2022-12-22T00:25:15.422Z,10.50
2022-12-22T00:28:01.366Z,10.60
2022-12-22T00:30:47.395Z,10.97
2022-12-22T00:33:35.808Z,11.23
2022-12-22T00:36:22.633Z,10.50
2022-12-22T00:39:08.617Z,11.67
2022-12-22T00:41:54.408Z,12.20
2022-12-22T00:44:40.324Z,10.60
2022-12-22T00:47:29.236Z,12.10
2022-12-22T00:50:15.067Z,10.57
2022-12-22T00:53:01.037Z,12.17
2022-12-22T00:55:49.867Z,10.97
2022-12-22T00:58:36.886Z,11.70
2022-12-22T01:01:22.889Z,10.37
2022-12-22T01:04:08.687Z,10.87
2022-12-22T01:06:55.525Z,10.50
2022-12-22T01:09:41.895Z,13.00
2022-12-22T01:12:32.946Z,10.50
2022-12-22T01:15:18.920Z,10.17
2022-12-22T01:18:04.861Z,10.60
2022-12-22T01:20:51.314Z,10.03
2022-12-22T01:23:37.173Z,10.20
2022-12-22T01:26:23.067Z,11.07
2022-12-22T01:29:09.152Z,12.20
2022-12-22T01:31:55.016Z,11.70
2022-12-22T01:34:40.813Z,11.93
2022-12-22T01:37:26.541Z,10.27
2022-12-22T01:40:12.445Z,11.00
2022-12-22T01:42:58.173Z,12.80
2022-12-22T01:45:45.888Z,11.03
2022-12-22T01:48:33.412Z,10.60
2022-12-22T01:51:20.986Z,11.90
2022-12-22T01:54:07.011Z,10.37
2022-12-22T01:56:52.985Z,12.40
2022-12-22T01:59:39.006Z,10.10
2022-12-22T02:02:28.514Z,11.33
2022-12-22T02:05:15.284Z,10.37
2022-12-22T02:08:16.021Z,10.40
2022-12-22T02:11:07.484Z,12.13
2022-12-22T02:13:57.363Z,10.60
2022-12-22T02:16:46.961Z,10.27
2022-12-22T02:19:32.800Z,10.87
2022-12-22T02:22:44.739Z,10.60
2022-12-22T02:25:37.298Z,12.73
2022-12-22T02:28:26.009Z,10.97
2022-12-22T02:31:12.119Z,11.60
2022-12-22T02:33:59.162Z,11.20
2022-12-22T02:36:50.595Z,11.50
2022-12-22T02:39:42.508Z,10.70
2022-12-22T02:42:36.130Z,13.47
2022-12-22T02:45:24.572Z,10.30
2022-12-22T02:48:23.720Z,11.27
2022-12-22T02:51:12.909Z,12.07
2022-12-22T02:53:59.325Z,10.40
2022-12-22T02:56:45.054Z,12.10
2022-12-22T02:59:31.027Z,9.93
2022-12-22T03:02:17.031Z,10.20
2022-12-22T03:05:02.707Z,10.70
2022-12-22T03:07:48.602Z,13.53
2022-12-22T03:10:34.514Z,9.77
2022-12-22T03:13:20.415Z,10.00
2022-12-22T03:16:06.422Z,10.70
2022-12-22T03:18:52.278Z,10.10
2022-12-22T03:21:38.372Z,10.87
2022-12-22T03:24:24.345Z,11.37
2022-12-22T03:26:51.402Z,12.33
2022-12-22T03:29:18.596Z,12.70
2022-12-22T03:31:45.706Z,11.33
2022-12-22T03:34:12.856Z,10.07
2022-12-22T03:36:39.910Z,10.13
2022-12-22T03:39:07.063Z,9.97
2022-12-22T03:41:52.835Z,11.20
2022-12-22T03:44:38.813Z,10.17
2022-12-22T03:47:05.932Z,10.27
2022-12-22T03:49:33.043Z,11.20
2022-12-22T03:52:02.358Z,10.40
2022-12-22T03:54:29.370Z,10.77
2022-12-22T03:56:58.133Z,11.53
2022-12-22T03:59:24.775Z,10.33
2022-12-22T04:01:53.526Z,10.80
2022-12-22T04:04:22.892Z,11.10
2022-12-22T04:06:51.002Z,10.60
2022-12-22T04:09:17.976Z,10.80
2022-12-22T04:12:03.264Z,15.90
2022-12-22T04:14:34.267Z,11.70
2022-12-22T04:17:02.793Z,10.90
2022-12-22T04:19:29.967Z,11.10
2022-12-22T04:21:56.745Z,11.30
2022-12-22T04:24:24.989Z,10.53
2022-12-22T04:26:52.900Z,11.03
2022-12-22T04:29:20.976Z,9.90
2022-12-22T04:31:48.130Z,10.23
2022-12-22T04:34:14.764Z,9.90
2022-12-22T04:36:41.351Z,11.90
2022-12-22T04:39:07.946Z,10.90
2022-12-22T04:41:34.535Z,9.70
2022-12-22T04:44:01.155Z,13.27
2022-12-22T04:46:27.841Z,9.63
2022-12-22T04:48:59.578Z,11.03
2022-12-22T04:51:28.620Z,10.20
2022-12-22T04:53:55.552Z,11.07
2022-12-22T04:56:22.176Z,11.70
2022-12-22T04:58:48.783Z,10.20
2022-12-22T05:01:17.814Z,9.83
2022-12-22T05:03:44.889Z,10.40
2022-12-22T05:06:12.311Z,10.67
2022-12-22T05:08:39.153Z,9.77
2022-12-22T05:11:06.111Z,9.33
2022-12-22T05:13:33.019Z,9.43
2022-12-22T05:16:07.256Z,11.27
2022-12-22T05:18:35.481Z,9.57
2022-12-22T05:21:04.616Z,11.90
2022-12-22T05:23:31.199Z,9.43
2022-12-22T05:25:57.954Z,9.40
2022-12-22T05:28:24.710Z,10.40
2022-12-22T05:30:52.155Z,14.53
2022-12-22T05:33:19.311Z,9.60
2022-12-22T05:35:45.966Z,8.97
2022-12-22T05:38:12.610Z,9.80
2022-12-22T05:40:39.224Z,10.77
2022-12-22T05:43:05.948Z,9.83
2022-12-22T05:45:32.617Z,9.70
2022-12-22T05:47:59.194Z,9.60
2022-12-22T05:50:26.201Z,9.43
2022-12-22T05:52:53.844Z,10.33
2022-12-22T05:55:20.519Z,9.17
2022-12-22T05:57:47.106Z,9.20
2022-12-22T06:00:16.416Z,10.70
2022-12-22T06:02:44.377Z,9.43
2022-12-22T06:05:12.844Z,9.30
2022-12-22T06:07:39.898Z,9.23
2022-12-22T06:10:11.945Z,12.93
2022-12-22T06:12:39.627Z,13.53
2022-12-22T06:15:07.621Z,17.80
2022-12-22T06:17:36.772Z,10.00
2022-12-22T06:20:09.637Z,10.60
2022-12-22T06:22:40.529Z,18.30
2022-12-22T06:25:09.134Z,13.47
2022-12-22T06:27:37.488Z,11.10
2022-12-22T06:30:04.813Z,10.80
2022-12-22T06:32:31.423Z,10.90
2022-12-22T06:34:58.016Z,12.43
2022-12-22T06:37:24.590Z,10.87
2022-12-22T06:39:51.227Z,26.23
2022-12-22T06:42:36.243Z,14.60
2022-12-22T06:45:02.931Z,9.93
2022-12-22T06:47:29.534Z,10.60
2022-12-22T06:49:56.134Z,9.93
2022-12-22T06:52:22.782Z,10.67
2022-12-22T06:54:49.385Z,12.10
2022-12-22T06:57:16.025Z,9.73
2022-12-22T06:59:42.827Z,10.67
2022-12-22T07:02:11.419Z,10.03
2022-12-22T07:04:38.182Z,11.97
2022-12-22T07:07:04.818Z,9.97
2022-12-22T07:09:31.395Z,9.30
2022-12-22T07:11:58.418Z,9.30
2022-12-22T07:14:25.163Z,9.30
2022-12-22T07:16:51.920Z,12.33
2022-12-22T07:19:18.635Z,10.33
2022-12-22T07:21:47.211Z,9.90
2022-12-22T07:24:13.883Z,10.30
2022-12-22T07:26:40.979Z,13.03
2022-12-22T07:29:10.876Z,9.57
2022-12-22T07:31:38.010Z,10.70
2022-12-22T07:34:07.689Z,8.97
2022-12-22T07:36:37.763Z,9.10
2022-12-22T07:39:07.415Z,9.03
2022-12-22T07:41:52.802Z,10.37
2022-12-22T07:44:23.480Z,8.90
2022-12-22T07:46:50.838Z,8.60
2022-12-22T07:49:39.592Z,9.97
2022-12-22T07:52:06.536Z,8.63
2022-12-22T07:54:41.464Z,8.43
2022-12-22T07:57:10.106Z,8.70
2022-12-22T07:59:39.159Z,8.67
2022-12-22T08:02:11.211Z,8.60
2022-12-22T08:04:41.394Z,8.40
2022-12-22T08:07:08.334Z,8.47
2022-12-22T08:09:35.282Z,8.90
2022-12-22T08:12:02.329Z,10.00
2022-12-22T08:14:31.060Z,8.83
2022-12-22T08:16:58.171Z,9.20
2022-12-22T08:19:25.302Z,9.30
2022-12-22T08:21:53.315Z,8.80
2022-12-22T08:24:22.222Z,9.03
2022-12-22T08:26:54.315Z,10.33
2022-12-22T08:29:40.435Z,9.17
2022-12-22T08:32:07.696Z,9.33
2022-12-22T08:34:34.649Z,8.83
2022-12-22T08:37:07.998Z,9.17
2022-12-22T08:39:49.156Z,10.20
2022-12-22T08:42:18.458Z,9.77
2022-12-22T08:44:47.383Z,9.80
2022-12-22T08:47:17.173Z,10.37
2022-12-22T08:49:44.383Z,9.70
2022-12-22T08:52:17.776Z,27.80
2022-12-22T08:54:47.916Z,32.40
2022-12-22T08:57:18.017Z,33.33
2022-12-22T08:59:48.278Z,11.50
2022-12-22T09:02:15.127Z,10.67
2022-12-22T09:04:45.125Z,16.90
2022-12-22T09:07:13.900Z,15.50
2022-12-22T09:09:43.114Z,29.83
2022-12-22T09:12:13.130Z,28.53
2022-12-22T09:14:41.851Z,21.50
2022-12-22T09:17:11.796Z,17.53
2022-12-22T09:19:41.580Z,11.10
2022-12-22T09:22:09.598Z,13.17
2022-12-22T09:24:37.211Z,12.37
2022-12-22T09:27:06.728Z,11.93
2022-12-22T09:29:36.173Z,10.60
2022-12-22T09:32:07.380Z,14.63
2022-12-22T09:34:34.721Z,11.80
2022-12-22T09:37:06.627Z,12.00
2022-12-22T09:39:34.185Z,11.33
2022-12-22T09:42:02.823Z,11.57
2022-12-22T09:44:32.173Z,10.27
2022-12-22T09:47:02.452Z,12.90
2022-12-22T09:49:32.511Z,13.17
2022-12-22T09:52:04.575Z,12.20
2022-12-22T09:54:34.596Z,14.17
2022-12-22T09:57:01.749Z,17.40
2022-12-22T09:59:29.250Z,17.73
2022-12-22T10:02:33.881Z,20.70
2022-12-22T10:05:13.225Z,18.93
2022-12-22T10:07:44.840Z,25.20
2022-12-22T10:10:29.248Z,19.23
2022-12-22T10:13:01.546Z,17.60
2022-12-22T10:15:38.889Z,16.50
2022-12-22T10:18:19.668Z,17.63
2022-12-22T10:21:08.225Z,14.60
2022-12-22T10:23:39.370Z,13.53
2022-12-22T10:26:31.858Z,14.60
2022-12-22T10:29:17.888Z,16.10
2022-12-22T10:32:04.313Z,21.70
2022-12-22T10:34:40.928Z,23.07
2022-12-22T10:37:15.933Z,25.10
2022-12-22T10:39:50.617Z,25.77
2022-12-22T10:42:19.723Z,27.93
2022-12-22T10:44:49.586Z,28.27
2022-12-22T10:47:26.431Z,28.60
2022-12-22T10:52:34.679Z,31.07
2022-12-22T10:55:28.778Z,38.33
2022-12-22T10:58:10.691Z,50.97
2022-12-22T11:00:38.847Z,51.33
2022-12-22T11:03:08.142Z,37.60
2022-12-22T11:05:38.188Z,38.27
2022-12-22T11:08:25.001Z,30.87
2022-12-22T11:10:54.336Z,37.90
2022-12-22T11:13:44.476Z,40.00
2022-12-22T11:16:32.847Z,34.53
2022-12-22T11:19:36.539Z,42.47
2022-12-22T11:22:19.098Z,37.87
2022-12-22T11:25:12.918Z,35.80
2022-12-22T11:28:09.903Z,36.30
2022-12-22T11:31:07.692Z,33.93
2022-12-22T11:33:43.282Z,30.53
2022-12-22T11:36:22.141Z,31.53
2022-12-22T11:39:04.308Z,30.03
2022-12-22T11:41:40.671Z,26.10
2022-12-22T11:44:47.210Z,27.77
2022-12-22T11:47:32.350Z,33.73
2022-12-22T11:51:02.119Z,27.73
2022-12-22T11:53:38.920Z,32.17
2022-12-22T11:56:22.692Z,25.20
2022-12-22T11:59:14.053Z,51.80
2022-12-22T12:01:59.312Z,26.67
2022-12-22T12:04:47.877Z,37.43
2022-12-22T12:07:45.401Z,21.70
2022-12-22T12:10:41.771Z,25.17
2022-12-22T12:13:36.502Z,21.50
2022-12-22T12:16:29.779Z,21.60
2022-12-22T12:19:26.829Z,20.10
2022-12-22T12:21:58.291Z,18.53
2022-12-22T12:24:56.928Z,17.57
2022-12-22T12:27:42.007Z,18.50
2022-12-22T12:33:19.086Z,17.47
2022-12-22T12:35:48.980Z,18.87
2022-12-22T12:41:31.476Z,19.63
2022-12-22T12:43:58.432Z,22.10
2022-12-22T12:46:46.135Z,17.43
2022-12-22T12:49:38.628Z,19.37
2022-12-22T12:52:10.004Z,18.70
2022-12-22T12:54:44.775Z,19.90
2022-12-22T12:57:29.332Z,18.97
2022-12-22T12:59:58.771Z,21.17
2022-12-22T13:02:28.920Z,20.43
2022-12-22T13:05:33.424Z,20.70
2022-12-22T13:08:11.396Z,21.07
2022-12-22T13:10:42.614Z,19.40
2022-12-22T13:13:24.707Z,19.43
2022-12-22T13:16:00.853Z,22.27
2022-12-22T13:18:30.863Z,19.40
2022-12-22T13:21:33.889Z,25.50
2022-12-22T13:24:23.330Z,23.53
2022-12-22T13:26:44.477Z,25.93
2022-12-22T13:29:25.715Z,18.90
2022-12-22T13:32:00.195Z,20.00
2022-12-22T13:35:20.672Z,20.70
2022-12-22T13:37:42.531Z,22.47
2022-12-22T13:40:40.726Z,19.20
2022-12-22T13:43:15.052Z,18.40
2022-12-22T13:45:47.736Z,18.57
2022-12-22T13:48:43.288Z,22.80
2022-12-22T13:51:33.853Z,20.47
2022-12-22T13:54:12.028Z,20.10
2022-12-22T13:56:48.052Z,19.30
2022-12-22T13:59:34.740Z,18.00
2022-12-22T14:02:16.834Z,16.80
2022-12-22T14:05:03.738Z,17.43
2022-12-22T14:07:30.921Z,16.13
2022-12-22T14:09:58.468Z,20.00
2022-12-22T14:12:38.171Z,15.53
2022-12-22T14:15:15.010Z,15.80
2022-12-22T14:17:46.178Z,16.53
2022-12-22T14:20:27.325Z,17.60
2022-12-22T14:23:05.209Z,21.03
2022-12-22T14:25:35.735Z,17.87
2022-12-22T14:28:04.941Z,17.70
2022-12-22T14:30:38.496Z,18.40
2022-12-22T14:33:28.410Z,18.47
2022-12-22T14:36:18.476Z,18.80
2022-12-22T14:38:49.296Z,22.40
2022-12-22T14:41:42.676Z,15.60
2022-12-22T14:44:24.439Z,15.13
2022-12-22T14:47:15.003Z,18.97
2022-12-22T14:49:46.394Z,19.20
2022-12-22T14:52:22.227Z,17.90
2022-12-22T14:54:51.290Z,18.83
2022-12-22T14:57:30.283Z,16.30
2022-12-22T15:00:06.709Z,15.67
2022-12-22T15:02:40.582Z,17.17
2022-12-22T15:05:16.390Z,18.33
2022-12-22T15:10:41.998Z,16.17
2022-12-22T15:13:23.732Z,19.97
2022-12-22T15:15:53.725Z,15.73
2022-12-22T15:18:26.058Z,16.73
2022-12-22T15:20:53.941Z,17.77
2022-12-22T15:23:20.594Z,56.80
2022-12-22T15:25:47.322Z,39.97
2022-12-22T15:28:14.123Z,22.00
2022-12-22T15:30:41.372Z,18.60
2022-12-22T15:33:17.482Z,17.57
2022-12-22T15:35:45.533Z,17.20
2022-12-22T15:38:21.169Z,18.83
2022-12-22T15:40:48.555Z,18.70
2022-12-22T15:43:55.862Z,15.90
2022-12-22T15:46:07.148Z,16.10
2022-12-22T15:48:39.514Z,14.70
2022-12-22T15:51:13.298Z,19.67
2022-12-22T15:53:39.921Z,20.53
2022-12-22T15:56:17.185Z,17.90
2022-12-22T15:58:45.857Z,16.33
2022-12-22T16:01:17.007Z,17.37
2022-12-22T16:03:43.849Z,17.13
2022-12-22T16:06:14.669Z,17.33
2022-12-22T16:08:44.328Z,20.03
2022-12-22T16:11:11.128Z,17.33
2022-12-22T16:13:38.377Z,15.77
2022-12-22T16:16:08.457Z,19.47
2022-12-22T16:18:35.216Z,25.50
2022-12-22T16:21:07.917Z,22.67
2022-12-22T16:23:36.601Z,18.60
2022-12-22T16:26:04.793Z,20.97
2022-12-22T16:28:33.905Z,23.30
2022-12-22T16:31:01.390Z,20.90
2022-12-22T16:33:28.828Z,24.37
2022-12-22T16:35:55.583Z,20.93
2022-12-22T16:38:23.224Z,21.60
2022-12-22T16:40:52.518Z,20.57
2022-12-22T16:46:16.508Z,17.90
2022-12-22T16:48:49.580Z,17.47
2022-12-22T16:51:29.093Z,18.37
2022-12-22T16:53:55.799Z,16.90
2022-12-22T16:56:26.527Z,13.37
2022-12-22T16:58:53.430Z,17.57
2022-12-22T17:01:38.757Z,13.63
2022-12-22T17:04:16.391Z,16.37
2022-12-22T17:06:43.327Z,12.20
2022-12-22T17:09:22.742Z,16.60
2022-12-22T17:11:49.725Z,14.23
2022-12-22T17:14:38.086Z,15.43
2022-12-22T17:17:04.719Z,11.87
2022-12-22T17:19:31.317Z,15.83
2022-12-22T17:21:59.960Z,13.50
2022-12-22T17:24:28.892Z,12.07
2022-12-22T17:27:06.067Z,13.53
2022-12-22T17:29:32.964Z,19.90
2022-12-22T17:32:02.709Z,18.33
2022-12-22T17:34:29.336Z,15.63
2022-12-22T17:36:58.694Z,16.23
2022-12-22T17:39:25.796Z,12.03
2022-12-22T17:41:57.411Z,11.47
2022-12-22T17:44:26.226Z,13.70
2022-12-22T17:46:54.192Z,11.13
2022-12-22T17:49:22.323Z,15.43
2022-12-22T17:51:49.764Z,11.40
2022-12-22T17:54:25.327Z,21.47
2022-12-22T17:56:58.131Z,13.00
2022-12-22T17:59:24.844Z,14.63
2022-12-22T18:01:51.544Z,11.93
2022-12-22T18:04:18.358Z,13.47
2022-12-22T18:06:46.544Z,11.30
2022-12-22T18:09:23.095Z,12.50
2022-12-22T18:11:50.253Z,13.80
2022-12-22T18:14:20.341Z,15.23
2022-12-22T18:16:49.150Z,17.13
2022-12-22T18:19:15.852Z,12.57
2022-12-22T18:21:43.381Z,13.70
2022-12-22T18:24:20.469Z,13.10
2022-12-22T18:26:47.601Z,13.20
2022-12-22T18:29:16.096Z,16.00
2022-12-22T18:31:44.040Z,17.00
2022-12-22T18:34:11.555Z,18.40
2022-12-22T18:36:42.173Z,14.30
2022-12-22T18:39:17.521Z,12.73
2022-12-22T18:41:44.809Z,12.73
2022-12-22T18:44:18.586Z,15.10
2022-12-22T18:46:46.194Z,17.53
2022-12-22T18:49:13.023Z,16.83
2022-12-22T18:51:39.728Z,15.83
2022-12-22T18:54:36.297Z,18.70
2022-12-22T18:57:03.615Z,16.67
2022-12-22T18:59:31.135Z,16.80
2022-12-22T19:02:12.180Z,20.20
2022-12-22T19:04:38.854Z,23.03
2022-12-22T19:07:05.781Z,16.10
2022-12-22T19:09:32.504Z,17.80
2022-12-22T19:11:59.158Z,20.10
2022-12-22T19:14:25.777Z,17.43
2022-12-22T19:16:54.583Z,19.03
2022-12-22T19:19:21.365Z,14.03
2022-12-22T19:21:51.138Z,18.00
2022-12-22T19:24:17.728Z,25.27
2022-12-22T19:26:44.365Z,19.37
2022-12-22T19:29:13.490Z,20.23
2022-12-22T19:31:40.792Z,22.57
2022-12-22T19:34:14.985Z,24.43
2022-12-22T19:36:41.620Z,29.67
2022-12-22T19:39:11.431Z,18.23
2022-12-22T19:41:52.630Z,20.87
2022-12-22T19:44:23.031Z,20.80
2022-12-22T19:46:50.785Z,21.87
2022-12-22T19:49:22.957Z,19.83
2022-12-22T19:51:50.532Z,25.83
2022-12-22T19:54:17.263Z,27.50
2022-12-22T19:56:47.332Z,21.63
2022-12-22T19:59:40.023Z,23.53
2022-12-22T20:02:26.134Z,28.37
2022-12-22T20:04:54.863Z,23.00
2022-12-22T20:07:24.693Z,21.20
2022-12-22T20:09:56.519Z,21.90
2022-12-22T20:12:29.191Z,24.87
2022-12-22T20:14:56.232Z,44.83
2022-12-22T20:17:23.127Z,38.40
2022-12-22T20:19:52.954Z,26.00
2022-12-22T20:22:22.481Z,31.10
2022-12-22T20:24:50.557Z,28.17
2022-12-22T20:27:18.571Z,25.77
2022-12-22T20:29:45.151Z,31.63
2022-12-22T20:32:15.670Z,24.50
2022-12-22T20:34:42.507Z,38.57
2022-12-22T20:37:16.540Z,34.83
2022-12-22T20:39:43.417Z,28.40
2022-12-22T20:42:21.786Z,30.50
2022-12-22T20:45:03.946Z,24.53
2022-12-22T20:47:32.848Z,19.40
2022-12-22T20:49:59.742Z,27.80
2022-12-22T20:52:26.531Z,23.03
2022-12-22T20:54:55.128Z,38.53
2022-12-22T20:57:22.461Z,28.50
2022-12-22T20:59:55.702Z,29.43
2022-12-22T21:02:29.450Z,33.73
2022-12-22T21:04:57.562Z,28.37
2022-12-22T21:07:24.197Z,32.13
2022-12-22T21:09:50.828Z,36.07
2022-12-22T21:12:17.497Z,33.73
2022-12-22T21:14:44.720Z,29.30
2022-12-22T21:17:18.974Z,29.87
2022-12-22T21:19:52.680Z,32.10
2022-12-22T21:22:19.328Z,38.43
2022-12-22T21:24:46.017Z,34.47
2022-12-22T21:27:19.968Z,33.10
2022-12-22T21:29:47.514Z,22.33
2022-12-22T21:32:15.207Z,29.23
2022-12-22T21:34:41.866Z,20.37
2022-12-22T21:37:15.853Z,32.73
2022-12-22T21:39:44.690Z,26.27
2022-12-22T21:42:16.183Z,23.43
2022-12-22T21:44:44.655Z,29.20
2022-12-22T21:47:17.154Z,21.20
2022-12-22T21:49:44.190Z,25.43
2022-12-22T21:52:11.203Z,21.53
2022-12-22T21:54:38.550Z,18.33
2022-12-22T21:57:05.916Z,19.97
2022-12-22T21:59:35.002Z,17.47
2022-12-22T22:02:02.131Z,20.97
2022-12-22T22:04:28.838Z,14.93
2022-12-22T22:06:56.077Z,20.80
2022-12-22T22:09:23.113Z,17.60
2022-12-22T22:12:10.135Z,24.90
2022-12-22T22:14:37.214Z,16.23
2022-12-22T22:17:04.371Z,17.80
2022-12-22T22:19:31.499Z,21.50
2022-12-22T22:21:58.509Z,17.17
2022-12-22T22:24:25.146Z,22.13
2022-12-22T22:26:51.885Z,18.10
2022-12-22T22:29:18.735Z,15.57
2022-12-22T22:31:45.562Z,18.07
2022-12-22T22:34:12.260Z,17.10
2022-12-22T22:36:38.854Z,15.30
2022-12-22T22:39:05.594Z,16.53
2022-12-22T22:41:39.243Z,15.80
2022-12-22T22:44:09.583Z,13.63
2022-12-22T22:46:36.271Z,21.67
2022-12-22T22:49:03.019Z,17.13
2022-12-22T22:51:30.666Z,17.03
2022-12-22T22:53:57.249Z,14.80
2022-12-22T22:56:23.849Z,18.83
2022-12-22T22:58:50.503Z,20.60
2022-12-22T23:01:17.342Z,12.00
2022-12-22T23:03:44.382Z,13.67
2022-12-22T23:06:13.132Z,17.20
2022-12-22T23:08:39.739Z,12.50
2022-12-22T23:11:17.669Z,10.93
2022-12-22T23:13:45.342Z,10.37
2022-12-22T23:16:11.996Z,11.63
2022-12-22T23:18:38.773Z,12.63
2022-12-22T23:21:06.940Z,12.87
2022-12-22T23:23:35.011Z,12.60
2022-12-22T23:26:02.090Z,10.43
2022-12-22T23:28:28.809Z,15.30
2022-12-22T23:30:55.478Z,12.77
2022-12-22T23:33:22.139Z,17.13
2022-12-22T23:35:50.332Z,13.63
2022-12-22T23:38:46.465Z,11.67
2022-12-22T23:41:14.050Z,25.20
2022-12-22T23:43:41.093Z,15.40
2022-12-22T23:46:10.218Z,16.77
2022-12-22T23:48:38.043Z,14.70
2022-12-22T23:51:05.016Z,14.73
2022-12-22T23:53:31.863Z,15.20
2022-12-22T23:55:58.538Z,14.20
2022-12-22T23:58:25.697Z,11.93
